Terminal Aerodrome Forecast
Issued by NWS

Home | Current Version | Previous Version | Text Only | Print | Product List | Glossary On
Versions: 1 2 3 4 5 6 7 8 9 10 11 12 13 14 15 16 17
151
FTUS41 KBGM 212339
TAFELM
TAF
KELM 212339Z 2200/2224 19005KT P6SM -SHRA SCT045 OVC070
      TEMPO 2202/2206 OVC045
     FM220600 VRB03KT P6SM SCT025 OVC040
     FM221300 19008KT P6SM OVC060=

USA.gov is the U.S. government's official web portal to all federal, state and local government web resources and services.